Time;durP1;ratioP1;P1;durP2;ratioP2;P2;SDS_P1;SDS_P2;PMS_P1;PMS_P2;Temp;Humidity;BMP_temperature;BMP_pressure;BME280_temperature;BME280_humidity;BME280_pressure;Samples;Min_cycle;Max_cycle;Signal;HPM_P1;HPM_P2
2022/07/04 00:02:03;;;;;;;;;;;;;;;17.81;100.00;91265.84;5034092;28;19925;-68
2022/07/04 00:04:28;;;;;;;;;;;;;;;17.77;100.00;91267.66;5033867;28;19924;-68
2022/07/04 00:06:53;;;;;;;;;;;;;;;17.73;100.00;91269.47;5033923;28;19921;-68
2022/07/04 00:09:19;;;;;;;;;;;;;;;17.70;100.00;91270.94;5033870;28;19924;-68
2022/07/04 00:11:44;;;;;;;;;;;;;;;17.65;100.00;91269.25;5033747;28;20303;-68
2022/07/04 00:14:09;;;;;;;;;;;;;;;17.52;100.00;91267.75;5033803;28;19928;-68
2022/07/04 00:16:35;;;;;;;;;;;;;;;17.40;100.00;91267.78;5033664;28;19928;-68
2022/07/04 00:19:01;;;;;;;;;;;;;;;17.28;100.00;91270.50;5033666;28;19967;-67
2022/07/04 00:21:26;;;;;;;;;;;;;;;17.08;100.00;91263.41;5033688;28;20318;-67
2022/07/04 00:23:51;;;;;;;;;;;;;;;16.96;100.00;91259.59;5033637;28;19917;-68
2022/07/04 00:26:17;;;;;;;;;;;;;;;16.85;100.00;91261.19;5033463;28;19917;-68
2022/07/04 00:28:42;;;;;;;;;;;;;;;16.78;100.00;91263.66;5033491;28;19917;-68
2022/07/04 00:31:08;;;;;;;;;;;;;;;16.71;100.00;91260.75;5033359;28;20012;-68
2022/07/04 00:33:33;;;;;;;;;;;;;;;16.71;100.00;91256.16;5015555;28;20477;-68
2022/07/04 00:35:59;;;;;;;;;;;;;;;16.64;100.00;91260.50;5033290;28;20402;-68
2022/07/04 00:38:24;;;;;;;;;;;;;;;16.55;100.00;91255.25;5033326;28;20395;-68
2022/07/04 00:40:50;;;;;;;;;;;;;;;16.56;100.00;91254.13;5032648;28;19921;-68
2022/07/04 00:43:21;;;;;;;;;;;;;;;16.58;100.00;91251.91;5033072;28;19916;-68
2022/07/04 00:45:46;;;;;;;;;;;;;;;16.60;100.00;91251.56;5033282;28;20007;-68
2022/07/04 00:48:12;;;;;;;;;;;;;;;16.53;100.00;91248.63;5033074;28;20000;-68
2022/07/04 00:50:37;;;;;;;;;;;;;;;16.41;100.00;91247.53;5032950;28;20279;-68
2022/07/04 00:53:02;;;;;;;;;;;;;;;16.32;100.00;91252.22;5032987;28;19913;-68
2022/07/04 00:55:28;;;;;;;;;;;;;;;16.26;100.00;91250.91;5032864;28;19913;-68
2022/07/04 00:57:53;;;;;;;;;;;;;;;16.23;100.00;91251.53;5032967;28;19974;-68
2022/07/04 01:00:19;;;;;;;;;;;;;;;16.27;100.00;91247.09;5032816;28;20003;-68
2022/07/04 01:02:44;;;;;;;;;;;;;;;16.26;100.00;91250.13;5032676;28;19920;-68
2022/07/04 01:05:10;;;;;;;;;;;;;;;16.13;100.00;91250.09;5032924;28;19916;-68
2022/07/04 01:07:35;;;;;;;;;;;;;;;16.08;100.00;91252.19;5032645;28;20290;-67
2022/07/04 01:10:02;;;;;;;;;;;;;;;16.00;100.00;91255.78;5032538;28;19913;-67
2022/07/04 01:12:28;;;;;;;;;;;;;;;15.93;100.00;91247.47;5032406;28;19917;-68
2022/07/04 01:14:54;;;;;;;;;;;;;;;15.82;100.00;91245.22;5032351;28;20311;-69
2022/07/04 01:17:19;;;;;;;;;;;;;;;15.81;100.00;91241.00;5032467;28;19917;-69
2022/07/04 01:19:44;;;;;;;;;;;;;;;15.77;100.00;91244.66;5032403;28;20398;-69
2022/07/04 01:22:10;;;;;;;;;;;;;;;15.74;100.00;91248.78;5032360;28;20020;-69
2022/07/04 01:24:35;;;;;;;;;;;;;;;15.73;100.00;91241.06;5032267;28;19913;-69
2022/07/04 01:27:00;;;;;;;;;;;;;;;15.67;100.00;91242.41;5032165;28;19912;-69
2022/07/04 01:29:26;;;;;;;;;;;;;;;15.65;100.00;91241.94;5032305;28;19913;-69
2022/07/04 01:31:53;;;;;;;;;;;;;;;15.56;100.00;91239.31;5032138;28;19917;-69
2022/07/04 01:34:18;;;;;;;;;;;;;;;15.61;100.00;91241.03;5032114;28;20375;-69
2022/07/04 01:36:44;;;;;;;;;;;;;;;15.62;100.00;91238.03;5032115;28;19975;-69
2022/07/04 01:39:09;;;;;;;;;;;;;;;15.59;100.00;91230.63;5032124;28;19964;-69
2022/07/04 01:41:35;;;;;;;;;;;;;;;15.66;100.00;91241.63;5032168;28;19971;-68
2022/07/04 01:44:00;;;;;;;;;;;;;;;15.63;100.00;91247.66;5032166;28;19968;-69
2022/07/04 01:46:26;;;;;;;;;;;;;;;15.58;100.00;91253.19;5031962;28;19920;-68
2022/07/04 01:48:51;;;;;;;;;;;;;;;15.45;100.00;91249.66;5032034;28;19920;-68
2022/07/04 01:51:16;;;;;;;;;;;;;;;15.42;100.00;91261.06;5032246;28;20290;-68
2022/07/04 01:53:42;;;;;;;;;;;;;;;15.31;100.00;91259.13;5031788;28;19962;-68
2022/07/04 01:56:07;;;;;;;;;;;;;;;15.22;100.00;91254.59;5031820;28;19913;-68
2022/07/04 01:58:32;;;;;;;;;;;;;;;15.17;100.00;91254.81;5031925;28;19920;-69
2022/07/04 02:03:42;;;;;;;;;;;;;;;15.04;100.00;91255.09;5032165;28;19920;-69
2022/07/04 02:06:07;;;;;;;;;;;;;;;15.00;100.00;91256.84;5145220;23;19922;-69
2022/07/04 02:11:17;;;;;;;;;;;;;;;15.03;100.00;91261.56;4992667;28;20011;-68
2022/07/04 02:13:42;;;;;;;;;;;;;;;15.00;100.00;91263.00;4992675;28;19969;-68
2022/07/04 02:16:07;;;;;;;;;;;;;;;14.97;100.00;91260.94;4992277;28;19913;-68
2022/07/04 02:18:33;;;;;;;;;;;;;;;14.90;100.00;91266.06;4992301;28;19921;-68
2022/07/04 02:20:58;;;;;;;;;;;;;;;14.92;100.00;91263.81;4992336;28;20016;-68
2022/07/04 02:23:24;;;;;;;;;;;;;;;14.90;100.00;91260.69;4992341;28;19918;-68
2022/07/04 02:25:49;;;;;;;;;;;;;;;14.92;100.00;91261.94;4992273;28;19917;-68
2022/07/04 02:28:14;;;;;;;;;;;;;;;14.97;100.00;91266.31;4992220;28;19917;-68
2022/07/04 02:30:39;;;;;;;;;;;;;;;15.00;100.00;91265.66;4992235;28;20078;-68
2022/07/04 02:33:05;;;;;;;;;;;;;;;14.98;100.00;91273.22;4992188;28;19921;-68
2022/07/04 02:35:30;;;;;;;;;;;;;;;15.01;100.00;91277.19;4992094;28;20008;-68
2022/07/04 02:37:55;;;;;;;;;;;;;;;14.91;100.00;91273.75;4992208;28;20366;-69
2022/07/04 02:40:20;;;;;;;;;;;;;;;14.83;100.00;91274.63;4992144;28;19987;-68
2022/07/04 02:42:46;;;;;;;;;;;;;;;14.77;100.00;91275.13;4992136;28;20372;-68
2022/07/04 02:45:12;;;;;;;;;;;;;;;14.76;100.00;91287.72;4992070;28;19963;-68
2022/07/04 02:47:37;;;;;;;;;;;;;;;14.78;100.00;91276.69;4992065;28;19914;-68
2022/07/04 02:50:03;;;;;;;;;;;;;;;14.79;100.00;91281.72;4992071;28;20026;-68
2022/07/04 02:52:28;;;;;;;;;;;;;;;14.86;100.00;91278.53;4991964;28;20376;-68
2022/07/04 02:54:54;;;;;;;;;;;;;;;14.90;100.00;91271.41;4991987;28;19920;-68
2022/07/04 02:57:19;;;;;;;;;;;;;;;14.92;100.00;91269.19;4992007;28;19918;-68
2022/07/04 02:59:44;;;;;;;;;;;;;;;14.93;100.00;91276.13;4991992;28;19917;-68
2022/07/04 03:02:09;;;;;;;;;;;;;;;14.93;100.00;91276.91;4992281;28;20303;-68
2022/07/04 03:04:35;;;;;;;;;;;;;;;14.91;100.00;91275.66;4992428;28;19913;-69
2022/07/04 03:07:00;;;;;;;;;;;;;;;14.84;100.00;91275.41;4995732;28;20004;-68
2022/07/04 03:09:28;;;;;;;;;;;;;;;14.75;100.00;91277.34;4995633;28;19918;-69
2022/07/04 03:11:54;;;;;;;;;;;;;;;14.85;100.00;91282.31;4995498;28;20398;-69
2022/07/04 03:14:19;;;;;;;;;;;;;;;15.18;100.00;91280.50;4995399;28;19918;-69
2022/07/04 03:16:45;;;;;;;;;;;;;;;15.11;100.00;91276.75;4995495;28;19918;-68
2022/07/04 03:19:10;;;;;;;;;;;;;;;15.09;100.00;91279.00;4995468;28;20366;-68
2022/07/04 03:21:35;;;;;;;;;;;;;;;15.18;100.00;91272.47;4995439;28;19925;-68
2022/07/04 03:24:00;;;;;;;;;;;;;;;15.34;100.00;91269.97;4995454;28;20395;-68
2022/07/04 03:26:30;;;;;;;;;;;;;;;15.46;100.00;91274.56;4995226;28;19917;-68
2022/07/04 03:28:56;;;;;;;;;;;;;;;15.57;100.00;91278.44;4995366;28;19976;-68
2022/07/04 03:31:22;;;;;;;;;;;;;;;15.62;100.00;91283.63;4995197;28;20303;-68
2022/07/04 03:33:47;;;;;;;;;;;;;;;15.58;100.00;91285.34;4995214;28;19976;-69
2022/07/04 03:36:12;;;;;;;;;;;;;;;15.56;100.00;91283.00;4994981;28;19964;-68
2022/07/04 03:38:37;;;;;;;;;;;;;;;15.65;100.00;91285.66;4995168;28;19918;-69
2022/07/04 03:41:03;;;;;;;;;;;;;;;15.63;100.00;91281.72;4995128;28;20440;-68
2022/07/04 03:43:28;;;;;;;;;;;;;;;15.69;100.00;91275.03;4995039;28;19914;-68
2022/07/04 03:45:53;;;;;;;;;;;;;;;15.68;100.00;91276.94;4994860;28;19976;-68
2022/07/04 03:48:20;;;;;;;;;;;;;;;15.77;100.00;91282.19;4994924;28;19929;-67
2022/07/04 03:50:45;;;;;;;;;;;;;;;15.94;100.00;91286.59;4994907;28;19924;-68
2022/07/04 03:53:12;;;;;;;;;;;;;;;16.09;100.00;91283.28;4994812;28;20303;-68
2022/07/04 03:55:37;;;;;;;;;;;;;;;16.20;100.00;91287.09;4994763;28;19976;-68
2022/07/04 03:58:04;;;;;;;;;;;;;;;16.14;100.00;91285.78;4994859;28;20461;-68
2022/07/04 04:00:29;;;;;;;;;;;;;;;16.09;100.00;91283.28;4994741;28;19913;-68
2022/07/04 04:02:55;;;;;;;;;;;;;;;16.03;100.00;91284.63;4994774;28;20305;-69
2022/07/04 04:05:26;;;;;;;;;;;;;;;16.14;100.00;91280.41;4993875;28;19918;-66
2022/07/04 04:07:52;;;;;;;;;;;;;;;16.24;100.00;91273.78;4994479;28;19921;-66
2022/07/04 04:10:17;;;;;;;;;;;;;;;16.44;100.00;91271.03;4994502;28;19972;-68
2022/07/04 04:12:43;;;;;;;;;;;;;;;16.61;100.00;91272.72;4994377;28;20406;-68
2022/07/04 04:15:08;;;;;;;;;;;;;;;16.68;100.00;91274.84;4994258;28;20383;-69
2022/07/04 04:17:33;;;;;;;;;;;;;;;16.71;100.00;91276.88;4994366;28;20442;-69
2022/07/04 04:19:59;;;;;;;;;;;;;;;16.75;100.00;91277.78;4994364;28;19918;-69
2022/07/04 04:22:24;;;;;;;;;;;;;;;16.86;100.00;91278.88;4994328;28;19971;-69
2022/07/04 04:24:49;;;;;;;;;;;;;;;16.96;100.00;91283.78;4994255;28;19917;-70
2022/07/04 04:27:15;;;;;;;;;;;;;;;17.02;100.00;91273.56;5009272;28;19918;-70
2022/07/04 04:29:40;;;;;;;;;;;;;;;17.16;100.00;91273.22;4994240;28;19978;-70
2022/07/04 04:32:06;;;;;;;;;;;;;;;17.33;100.00;91281.78;4994105;28;19925;-70
2022/07/04 04:34:31;;;;;;;;;;;;;;;17.47;100.00;91278.72;4993900;28;19920;-70
2022/07/04 04:36:56;;;;;;;;;;;;;;;17.37;100.00;91287.28;4994064;28;19914;-69
2022/07/04 04:39:22;;;;;;;;;;;;;;;17.51;100.00;91286.88;4994105;28;20406;-70
2022/07/04 04:41:47;;;;;;;;;;;;;;;17.60;100.00;91284.84;4993992;28;20383;-69
2022/07/04 04:44:12;;;;;;;;;;;;;;;17.60;100.00;91296.41;4993855;28;19914;-70
2022/07/04 04:46:38;;;;;;;;;;;;;;;17.75;100.00;91277.97;4993910;28;20387;-70
2022/07/04 04:49:03;;;;;;;;;;;;;;;17.70;100.00;91278.25;4993852;28;19914;-69
2022/07/04 04:51:28;;;;;;;;;;;;;;;17.76;100.00;91285.72;4993746;28;20016;-69
2022/07/04 04:53:54;;;;;;;;;;;;;;;17.84;100.00;91284.00;4993778;28;19964;-69
2022/07/04 04:56:19;;;;;;;;;;;;;;;17.92;100.00;91281.16;4993464;28;19964;-69
2022/07/04 04:58:44;;;;;;;;;;;;;;;18.14;100.00;91281.69;4993723;28;19964;-69
2022/07/04 05:01:10;;;;;;;;;;;;;;;18.30;100.00;91279.03;4993621;28;19968;-69
2022/07/04 05:03:35;;;;;;;;;;;;;;;18.50;100.00;91272.63;4993551;28;19918;-69
2022/07/04 05:06:00;;;;;;;;;;;;;;;18.67;100.00;91279.59;4993250;28;19918;-69
2022/07/04 05:08:25;;;;;;;;;;;;;;;18.66;100.00;91278.81;4993431;28;19925;-69
2022/07/04 05:10:51;;;;;;;;;;;;;;;18.82;100.00;91278.78;4993290;28;19969;-70
2022/07/04 05:13:17;;;;;;;;;;;;;;;19.03;100.00;91273.88;4993203;28;20387;-70
2022/07/04 05:15:42;;;;;;;;;;;;;;;19.20;100.00;91272.69;4993142;28;20008;-70
2022/07/04 05:18:07;;;;;;;;;;;;;;;19.43;100.00;91279.00;4993147;28;19913;-70
2022/07/04 05:20:33;;;;;;;;;;;;;;;19.64;100.00;91275.97;4993160;28;20064;-70
2022/07/04 05:22:59;;;;;;;;;;;;;;;19.68;100.00;91282.22;4993072;28;19921;-70
2022/07/04 05:25:25;;;;;;;;;;;;;;;19.91;100.00;91274.19;4993039;28;20372;-69
2022/07/04 05:27:50;;;;;;;;;;;;;;;20.13;100.00;91279.97;4992634;28;19925;-69
2022/07/04 05:30:16;;;;;;;;;;;;;;;20.36;100.00;91280.03;4993044;28;20323;-69
2022/07/04 05:32:41;;;;;;;;;;;;;;;20.54;100.00;91278.44;4992840;28;20323;-69
2022/07/04 05:35:07;;;;;;;;;;;;;;;20.63;100.00;91274.31;4992857;28;20016;-69
2022/07/04 05:37:32;;;;;;;;;;;;;;;20.83;100.00;91268.88;4992890;28;20304;-70
2022/07/04 05:39:58;;;;;;;;;;;;;;;20.74;100.00;91263.69;4993099;28;19919;-70
2022/07/04 05:42:23;;;;;;;;;;;;;;;20.46;100.00;91264.00;4992793;28;20384;-70
2022/07/04 05:44:48;;;;;;;;;;;;;;;20.83;100.00;91272.34;4992651;28;19921;-70
2022/07/04 05:47:14;;;;;;;;;;;;;;;20.89;100.00;91267.41;5007810;28;19914;-70
2022/07/04 05:49:39;;;;;;;;;;;;;;;21.77;100.00;91265.16;4992724;28;20029;-70
2022/07/04 05:52:05;;;;;;;;;;;;;;;24.72;80.35;91263.72;4992608;28;19917;-70
2022/07/04 05:54:30;;;;;;;;;;;;;;;27.19;64.87;91269.22;4992082;28;19917;-71
2022/07/04 05:56:55;;;;;;;;;;;;;;;28.87;57.06;91258.75;4992502;28;19971;-70
2022/07/04 05:59:20;;;;;;;;;;;;;;;29.88;52.42;91266.91;4992579;28;19921;-71
2022/07/04 06:01:46;;;;;;;;;;;;;;;30.47;51.40;91279.94;4992602;28;20303;-69
2022/07/04 06:04:11;;;;;;;;;;;;;;;31.64;48.21;91273.78;4992421;28;19921;-73
2022/07/04 06:06:37;;;;;;;;;;;;;;;34.14;43.61;91270.81;4992161;28;19917;-70
2022/07/04 06:09:03;;;;;;;;;;;;;;;36.12;40.42;91269.25;4992221;28;19924;-70
2022/07/04 06:11:28;;;;;;;;;;;;;;;36.76;38.46;91266.47;4992352;28;20423;-70
2022/07/04 06:13:54;;;;;;;;;;;;;;;34.51;42.74;91271.13;4974468;28;19976;-69
2022/07/04 06:16:19;;;;;;;;;;;;;;;35.58;40.46;91276.19;4972369;28;20316;-71
2022/07/04 06:18:45;;;;;;;;;;;;;;;36.47;39.73;91272.53;4972776;28;19918;-70
2022/07/04 06:21:10;;;;;;;;;;;;;;;36.89;38.56;91267.09;4972894;28;20061;-70
2022/07/04 06:23:35;;;;;;;;;;;;;;;37.09;36.54;91276.94;4972884;28;19921;-68
2022/07/04 06:26:01;;;;;;;;;;;;;;;34.84;39.76;91271.50;4972703;28;20402;-69
2022/07/04 06:28:27;;;;;;;;;;;;;;;35.91;38.22;91272.91;4972784;28;19917;-69
2022/07/04 06:30:52;;;;;;;;;;;;;;;38.23;36.02;91265.97;4972209;28;19914;-70
2022/07/04 06:33:18;;;;;;;;;;;;;;;38.76;35.23;91270.81;4972482;28;19937;-69
2022/07/04 06:35:54;;;;;;;;;;;;;;;38.17;36.41;91265.03;4972421;28;19918;-71
2022/07/04 06:38:20;;;;;;;;;;;;;;;36.03;38.60;91272.03;4972481;28;19921;-69
2022/07/04 06:40:46;;;;;;;;;;;;;;;37.43;37.13;91265.44;4975206;28;20447;-71
2022/07/04 06:43:11;;;;;;;;;;;;;;;38.60;36.04;91272.00;4976479;28;19918;-69
2022/07/04 06:45:37;;;;;;;;;;;;;;;37.71;37.83;91277.16;4975728;28;19918;-68
2022/07/04 06:48:03;;;;;;;;;;;;;;;36.69;38.48;91264.03;4976360;28;19921;-68
2022/07/04 06:50:32;;;;;;;;;;;;;;;36.97;39.26;91270.34;4976275;28;19993;-68
2022/07/04 06:52:58;;;;;;;;;;;;;;;36.03;40.67;91265.72;4976088;28;19918;-68
2022/07/04 06:55:35;;;;;;;;;;;;;;;35.32;42.64;91272.81;4976077;28;19936;-70
2022/07/04 06:58:01;;;;;;;;;;;;;;;36.63;41.64;91263.13;4976133;28;19918;-69
2022/07/04 07:00:26;;;;;;;;;;;;;;;36.72;41.00;91265.88;4975740;28;19917;-68
2022/07/04 07:02:51;;;;;;;;;;;;;;;36.66;39.93;91255.88;4976065;28;19969;-68
2022/07/04 07:05:17;;;;;;;;;;;;;;;35.98;41.30;91262.31;4975795;28;19977;-68
2022/07/04 07:07:42;;;;;;;;;;;;;;;37.18;39.74;91263.78;4975968;28;19918;-68
2022/07/04 07:10:08;;;;;;;;;;;;;;;38.51;37.63;91258.19;4975911;28;20354;-67
2022/07/04 07:12:34;;;;;;;;;;;;;;;39.23;36.66;91264.34;4975722;28;19921;-67
2022/07/04 07:14:59;;;;;;;;;;;;;;;40.01;34.73;91262.03;4975173;28;19921;-68
2022/07/04 07:17:25;;;;;;;;;;;;;;;40.24;34.92;91261.09;4975814;28;20365;-68
2022/07/04 07:19:51;;;;;;;;;;;;;;;38.51;35.80;91255.41;4975809;28;20014;-68
2022/07/04 07:22:16;;;;;;;;;;;;;;;36.87;38.03;91246.63;4975754;28;19921;-68
2022/07/04 07:24:42;;;;;;;;;;;;;;;38.78;36.03;91248.84;4975751;28;19936;-68
2022/07/04 07:27:08;;;;;;;;;;;;;;;37.50;36.89;91250.44;4975670;28;19914;-67
2022/07/04 07:29:33;;;;;;;;;;;;;;;38.42;35.26;91249.94;4975225;28;19914;-68
2022/07/04 07:31:59;;;;;;;;;;;;;;;37.63;36.31;91245.44;4975566;28;19918;-68
2022/07/04 07:34:24;;;;;;;;;;;;;;;38.02;35.51;91242.75;4975500;28;20376;-68
2022/07/04 07:36:49;;;;;;;;;;;;;;;37.19;36.73;91247.91;4975488;28;19918;-68
2022/07/04 07:39:15;;;;;;;;;;;;;;;37.70;36.35;91247.88;4975563;28;19918;-68
2022/07/04 07:41:40;;;;;;;;;;;;;;;36.04;38.23;91251.41;4975442;28;19918;-68
2022/07/04 07:44:06;;;;;;;;;;;;;;;36.42;37.84;91250.19;4975168;28;20422;-69
2022/07/04 07:46:32;;;;;;;;;;;;;;;36.40;37.77;91241.56;4975417;28;19914;-69
2022/07/04 07:48:57;;;;;;;;;;;;;;;36.97;38.08;91236.28;4975299;28;19925;-68
2022/07/04 07:51:23;;;;;;;;;;;;;;;38.91;35.58;91247.34;4974858;28;19914;-69
2022/07/04 07:53:48;;;;;;;;;;;;;;;39.91;33.97;91253.00;4975144;28;20061;-69
2022/07/04 07:56:13;;;;;;;;;;;;;;;40.21;34.46;91258.50;4975063;28;19921;-70
2022/07/04 07:58:38;;;;;;;;;;;;;;;39.62;34.14;91253.88;4974745;28;19914;-70
2022/07/04 08:01:04;;;;;;;;;;;;;;;39.13;34.18;91260.88;4975060;28;20053;-69
2022/07/04 08:06:13;;;;;;;;;;;;;;;38.87;35.53;91251.56;4974755;28;19925;-69
2022/07/04 08:08:39;;;;;;;;;;;;;;;39.69;35.20;91263.84;4974854;28;19914;-69
2022/07/04 08:11:04;;;;;;;;;;;;;;;39.76;33.99;91261.41;4975172;28;19914;-69
2022/07/04 08:13:30;;;;;;;;;;;;;;;38.60;34.53;91255.31;4974325;28;20380;-69
2022/07/04 08:15:55;;;;;;;;;;;;;;;40.03;32.77;91254.72;4974796;28;19990;-69
2022/07/04 08:18:22;;;;;;;;;;;;;;;40.82;32.35;91264.06;4974720;28;19914;-70
2022/07/04 08:20:48;;;;;;;;;;;;;;;40.33;32.12;91262.97;4974976;28;19914;-70
2022/07/04 08:23:13;;;;;;;;;;;;;;;41.16;31.47;91257.56;4974699;28;19978;-70
2022/07/04 08:25:38;;;;;;;;;;;;;;;41.31;32.23;91259.50;4974632;28;19953;-69
2022/07/04 08:28:04;;;;;;;;;;;;;;;40.47;32.43;91253.78;4974111;28;19948;-69
2022/07/04 08:30:29;;;;;;;;;;;;;;;40.31;33.44;91262.69;4974543;28;19961;-69
2022/07/04 08:32:54;;;;;;;;;;;;;;;41.14;32.01;91264.91;4974400;28;20017;-68
2022/07/04 08:35:20;;;;;;;;;;;;;;;41.24;31.40;91257.91;4974388;28;20300;-70
2022/07/04 08:37:45;;;;;;;;;;;;;;;40.74;32.07;91262.97;4974435;28;19918;-70
2022/07/04 08:40:11;;;;;;;;;;;;;;;41.65;30.97;91252.91;4974388;28;19922;-70
2022/07/04 08:42:37;;;;;;;;;;;;;;;41.49;31.52;91254.31;4974347;28;19965;-71
2022/07/04 08:45:03;;;;;;;;;;;;;;;41.73;29.22;91258.84;4974237;28;20005;-71
2022/07/04 08:47:31;;;;;;;;;;;;;;;41.98;30.06;91251.63;4974227;28;19918;-71
2022/07/04 08:50:10;;;;;;;;;;;;;;;40.46;30.65;91255.03;4974214;28;19918;-71
2022/07/04 08:52:36;;;;;;;;;;;;;;;40.24;32.46;91251.94;4974112;28;19917;-71
2022/07/04 09:00:31;;;;;;;;;;;;;;;41.20;29.18;91252.53;4974271;28;19921;-72
2022/07/04 09:02:58;;;;;;;;;;;;;;;42.49;30.46;91252.69;4974593;28;19918;-70
2022/07/04 09:05:24;;;;;;;;;;;;;;;43.27;27.37;91261.34;5012674;28;19917;-68
2022/07/04 09:07:50;;;;;;;;;;;;;;;43.39;26.13;91259.34;5012903;28;19968;-68
2022/07/04 09:10:16;;;;;;;;;;;;;;;41.66;29.65;91248.91;5013013;28;19923;-68
2022/07/04 09:12:41;;;;;;;;;;;;;;;41.21;30.22;91250.53;5012235;28;19913;-69
2022/07/04 09:15:07;;;;;;;;;;;;;;;42.84;28.13;91247.50;5012697;28;19917;-68
2022/07/04 09:17:33;;;;;;;;;;;;;;;42.79;28.21;91248.25;5012711;28;19913;-69
2022/07/04 09:20:11;;;;;;;;;;;;;;;41.41;28.24;91250.47;5012685;28;19917;-68
2022/07/04 09:22:36;;;;;;;;;;;;;;;41.00;30.01;91241.44;5012650;28;20343;-68
2022/07/04 09:25:03;;;;;;;;;;;;;;;39.82;30.62;91255.91;5012475;28;19952;-68
2022/07/04 09:27:33;;;;;;;;;;;;;;;40.72;30.52;91246.72;5012042;28;19921;-68
2022/07/04 09:29:58;;;;;;;;;;;;;;;40.49;29.92;91250.50;5012552;28;19957;-68
2022/07/04 09:32:33;;;;;;;;;;;;;;;40.60;28.37;91251.41;5012422;28;19960;-67
2022/07/04 09:34:58;;;;;;;;;;;;;;;40.17;28.80;91252.34;5012445;28;19914;-70
2022/07/04 09:37:32;;;;;;;;;;;;;;;37.63;30.24;91247.47;5012514;28;19913;-70
2022/07/04 09:39:58;;;;;;;;;;;;;;;39.61;30.36;91243.97;5012576;28;19996;-71
2022/07/04 09:42:23;;;;;;;;;;;;;;;39.66;30.87;91236.94;5012530;28;19949;-70
2022/07/04 09:44:51;;;;;;;;;;;;;;;39.88;29.37;91240.03;5012391;28;20008;-67
2022/07/04 09:47:24;;;;;;;;;;;;;;;39.43;28.63;91235.81;5012449;28;19921;-70
2022/07/04 09:50:08;;;;;;;;;;;;;;;38.66;29.86;91236.75;5012406;28;19924;-70
2022/07/04 09:52:53;;;;;;;;;;;;;;;37.89;30.54;91234.69;5012253;28;19920;-67
2022/07/04 09:55:37;;;;;;;;;;;;;;;39.59;31.02;91234.53;5012458;28;19917;-67
2022/07/04 09:58:04;;;;;;;;;;;;;;;38.78;31.32;91235.72;5012197;28;20306;-66
2022/07/04 10:00:31;;;;;;;;;;;;;;;40.26;28.24;91233.50;5012140;28;19913;-67
2022/07/04 10:02:57;;;;;;;;;;;;;;;39.67;29.90;91232.91;5012202;28;19913;-67
2022/07/04 10:05:27;;;;;;;;;;;;;;;38.92;30.32;91234.97;5011830;28;19925;-67
2022/07/04 10:07:56;;;;;;;;;;;;;;;38.73;30.71;91225.25;5012019;28;20315;-67
2022/07/04 10:10:24;;;;;;;;;;;;;;;39.24;30.20;91230.47;5011893;28;19977;-65
2022/07/04 10:12:54;;;;;;;;;;;;;;;39.72;28.95;91235.75;5011937;28;20383;-67
2022/07/04 10:15:19;;;;;;;;;;;;;;;39.34;31.09;91224.78;5011648;28;19914;-64
2022/07/04 10:17:45;;;;;;;;;;;;;;;39.46;29.21;91227.28;5011983;28;19917;-67
2022/07/04 10:20:11;;;;;;;;;;;;;;;38.46;30.32;91229.03;5011802;28;19940;-67
2022/07/04 10:22:37;;;;;;;;;;;;;;;38.68;32.35;91236.28;5011582;28;20311;-67
2022/07/04 10:25:02;;;;;;;;;;;;;;;39.14;32.70;91242.97;5011813;28;19921;-67
2022/07/04 10:27:28;;;;;;;;;;;;;;;39.56;30.99;91238.31;5011905;28;19917;-67
2022/07/04 10:29:53;;;;;;;;;;;;;;;39.26;31.24;91232.00;5011869;28;19996;-67
2022/07/04 10:32:20;;;;;;;;;;;;;;;39.72;29.86;91235.00;5011724;28;20453;-67
2022/07/04 10:34:45;;;;;;;;;;;;;;;39.60;29.00;91236.09;5011694;28;19933;-67
2022/07/04 10:37:10;;;;;;;;;;;;;;;37.54;31.61;91228.81;5011770;28;20033;-67
2022/07/04 10:39:36;;;;;;;;;;;;;;;38.03;29.06;91225.66;5012066;28;19913;-67
2022/07/04 10:42:02;;;;;;;;;;;;;;;36.95;30.68;91231.22;5011942;28;20364;-67
2022/07/04 10:44:35;;;;;;;;;;;;;;;36.05;31.64;91222.47;5011612;28;19925;-67
2022/07/04 10:47:00;;;;;;;;;;;;;;;37.08;33.17;91219.91;5011714;28;20363;-67
2022/07/04 10:49:27;;;;;;;;;;;;;;;38.16;30.78;91221.84;4989421;28;19962;-66
2022/07/04 10:52:09;;;;;;;;;;;;;;;38.29;28.81;91220.38;4972110;28;19914;-67
2022/07/04 10:54:36;;;;;;;;;;;;;;;38.55;30.88;91219.84;4972258;28;19969;-67
2022/07/04 10:57:12;;;;;;;;;;;;;;;39.93;28.56;91222.66;4972388;28;20435;-68
2022/07/04 10:59:38;;;;;;;;;;;;;;;38.89;29.54;91226.81;4972043;28;19921;-67
2022/07/04 11:02:04;;;;;;;;;;;;;;;37.73;31.54;91210.88;4972317;28;19914;-66
2022/07/04 11:04:46;;;;;;;;;;;;;;;38.03;30.61;91222.06;4972058;28;19921;-66
2022/07/04 11:07:11;;;;;;;;;;;;;;;39.14;28.67;91222.72;4972537;28;19953;-67
2022/07/04 11:09:37;;;;;;;;;;;;;;;37.07;29.77;91218.34;4972302;28;19957;-67
2022/07/04 11:12:06;;;;;;;;;;;;;;;36.96;30.05;91218.88;4972195;28;19914;-66
2022/07/04 11:14:34;;;;;;;;;;;;;;;37.76;32.00;91209.91;4971661;28;19914;-66
2022/07/04 11:17:00;;;;;;;;;;;;;;;37.93;30.78;91220.63;4972249;28;20008;-67
2022/07/04 11:19:27;;;;;;;;;;;;;;;38.19;32.59;91221.69;4954903;28;20026;-66
2022/07/04 11:21:53;;;;;;;;;;;;;;;36.99;30.40;91212.38;4972186;28;19914;-67
2022/07/04 11:24:18;;;;;;;;;;;;;;;37.24;33.11;91210.44;4972000;28;19914;-66
2022/07/04 11:26:45;;;;;;;;;;;;;;;37.68;33.17;91205.91;4974503;28;19985;-67
2022/07/04 11:29:12;;;;;;;;;;;;;;;38.24;30.80;91198.03;4974910;28;19950;-66
2022/07/04 11:31:39;;;;;;;;;;;;;;;37.70;32.37;91197.88;4975649;28;19918;-66
2022/07/04 11:34:04;;;;;;;;;;;;;;;38.11;31.44;91205.81;4975630;28;19914;-66
2022/07/04 11:36:30;;;;;;;;;;;;;;;37.64;32.73;91199.78;4975552;28;19918;-66
2022/07/04 11:38:56;;;;;;;;;;;;;;;37.82;31.90;91198.16;4975588;28;20289;-66
2022/07/04 11:47:14;;;;;;;;;;;;;;;37.90;32.68;91194.56;4975701;28;19952;-66
2022/07/04 11:49:50;;;;;;;;;;;;;;;38.27;30.86;91186.72;4975253;28;20394;-66
2022/07/04 11:52:17;;;;;;;;;;;;;;;39.08;32.34;91189.22;4975215;28;19914;-67
2022/07/04 11:54:43;;;;;;;;;;;;;;;36.90;32.15;91187.44;4975053;28;19921;-66
2022/07/04 11:57:09;;;;;;;;;;;;;;;37.42;33.93;91188.19;4974812;28;19926;-66
2022/07/04 11:59:35;;;;;;;;;;;;;;;37.48;33.99;91175.97;4975247;28;19917;-66
2022/07/04 12:02:12;;;;;;;;;;;;;;;37.43;32.99;91184.19;4975086;28;20407;-65
2022/07/04 12:04:38;;;;;;;;;;;;;;;37.46;33.12;91186.00;4974682;28;20273;-65
2022/07/04 12:07:13;;;;;;;;;;;;;;;38.18;33.38;91174.88;4974965;28;20013;-66
2022/07/04 12:09:39;;;;;;;;;;;;;;;37.33;32.37;91185.47;4974954;28;19981;-65
2022/07/04 12:12:05;;;;;;;;;;;;;;;37.57;34.02;91169.59;4974430;28;20550;-66
2022/07/04 12:14:30;;;;;;;;;;;;;;;38.60;32.59;91166.34;4974601;28;19918;-66
2022/07/04 12:17:09;;;;;;;;;;;;;;;37.18;31.86;91165.91;4974805;28;19966;-66
2022/07/04 12:19:34;;;;;;;;;;;;;;;37.36;32.76;91173.41;4974771;28;19965;-66
2022/07/04 12:21:59;;;;;;;;;;;;;;;37.33;33.84;91160.47;4974608;28;19965;-66
2022/07/04 12:24:26;;;;;;;;;;;;;;;37.64;31.48;91146.25;4974476;28;20021;-66
2022/07/04 12:26:51;;;;;;;;;;;;;;;37.98;32.27;91144.94;4974286;28;20057;-67
2022/07/04 12:29:21;;;;;;;;;;;;;;;38.03;32.71;91147.06;4974552;28;20436;-67
2022/07/04 12:31:50;;;;;;;;;;;;;;;37.56;33.55;91142.28;4974396;28;19921;-67
2022/07/04 12:34:16;;;;;;;;;;;;;;;37.53;31.88;91138.44;4974453;28;19918;-67
2022/07/04 12:36:51;;;;;;;;;;;;;;;36.90;32.03;91154.16;4973821;28;19918;-65
2022/07/04 12:39:46;;;;;;;;;;;;;;;36.07;34.32;91150.75;4974088;28;20411;-66
2022/07/04 12:42:16;;;;;;;;;;;;;;;35.46;35.23;91157.31;4969357;28;20060;-65
2022/07/04 12:44:42;;;;;;;;;;;;;;;35.54;36.33;91150.25;4974112;28;20312;-66
2022/07/04 12:47:09;;;;;;;;;;;;;;;35.27;36.32;91151.72;4974286;28;20061;-66
2022/07/04 12:49:35;;;;;;;;;;;;;;;36.32;34.44;91151.66;4974303;28;20372;-66
2022/07/04 12:52:07;;;;;;;;;;;;;;;35.83;35.45;91145.06;4972177;28;20459;-66
2022/07/04 12:54:32;;;;;;;;;;;;;;;36.19;34.94;91149.06;4973958;28;19914;-66
2022/07/04 12:57:08;;;;;;;;;;;;;;;36.59;34.29;91148.84;4974263;28;19921;-66
2022/07/04 12:59:33;;;;;;;;;;;;;;;37.41;33.05;91145.78;4974207;28;19920;-66